sensor_id;sensor_type;location;lat;lon;timestamp;pressure;altitude;pressure_sealevel;temperature;humidity
22964;BME280;11648;49.306;6.934;2023-02-11T00:00:20;100455.25;;;6.72;61.24
22964;BME280;11648;49.306;6.934;2023-02-11T00:02:47;100448.78;;;6.86;60.55
22964;BME280;11648;49.306;6.934;2023-02-11T00:05:14;100442.09;;;6.94;60.22
22964;BME280;11648;49.306;6.934;2023-02-11T00:07:41;100429.63;;;6.87;60.52
22964;BME280;11648;49.306;6.934;2023-02-11T00:10:08;100439.66;;;6.75;60.50
22964;BME280;11648;49.306;6.934;2023-02-11T00:12:36;100434.56;;;6.78;60.86
22964;BME280;11648;49.306;6.934;2023-02-11T00:15:04;100431.97;;;6.80;60.65
22964;BME280;11648;49.306;6.934;2023-02-11T00:17:31;100436.66;;;6.88;60.44
22964;BME280;11648;49.306;6.934;2023-02-11T00:19:58;100444.47;;;6.63;60.68
22964;BME280;11648;49.306;6.934;2023-02-11T00:22:25;100450.56;;;6.87;60.58
22964;BME280;11648;49.306;6.934;2023-02-11T00:24:51;100455.00;;;6.88;60.27
22964;BME280;11648;49.306;6.934;2023-02-11T00:27:18;100445.53;;;6.93;60.33
22964;BME280;11648;49.306;6.934;2023-02-11T00:29:45;100439.66;;;6.99;60.18
22964;BME280;11648;49.306;6.934;2023-02-11T00:32:11;100447.44;;;6.97;60.05
22964;BME280;11648;49.306;6.934;2023-02-11T00:34:38;100442.38;;;7.02;59.72
22964;BME280;11648;49.306;6.934;2023-02-11T00:37:05;100440.47;;;7.23;59.69
22964;BME280;11648;49.306;6.934;2023-02-11T00:39:32;100441.81;;;7.36;58.96
22964;BME280;11648;49.306;6.934;2023-02-11T00:41:59;100433.41;;;7.46;58.94
22964;BME280;11648;49.306;6.934;2023-02-11T00:44:25;100428.91;;;7.42;58.76
22964;BME280;11648;49.306;6.934;2023-02-11T00:46:52;100425.97;;;7.33;58.80
22964;BME280;11648;49.306;6.934;2023-02-11T00:49:19;100433.31;;;7.43;58.72
22964;BME280;11648;49.306;6.934;2023-02-11T00:51:47;100419.56;;;7.50;58.25
22964;BME280;11648;49.306;6.934;2023-02-11T00:54:14;100415.78;;;7.42;58.65
22964;BME280;11648;49.306;6.934;2023-02-11T00:56:40;100410.41;;;7.37;58.63
22964;BME280;11648;49.306;6.934;2023-02-11T00:59:07;100408.59;;;7.36;58.69
22964;BME280;11648;49.306;6.934;2023-02-11T01:01:34;100405.63;;;7.26;58.89
22964;BME280;11648;49.306;6.934;2023-02-11T01:04:01;100406.03;;;7.11;59.07
22964;BME280;11648;49.306;6.934;2023-02-11T01:06:28;100400.00;;;6.88;59.69
22964;BME280;11648;49.306;6.934;2023-02-11T01:08:55;100399.38;;;7.21;59.02
22964;BME280;11648;49.306;6.934;2023-02-11T01:11:22;100400.03;;;7.15;59.27
22964;BME280;11648;49.306;6.934;2023-02-11T01:13:49;100399.94;;;7.12;59.41
22964;BME280;11648;49.306;6.934;2023-02-11T01:16:17;100402.00;;;7.21;58.92
22964;BME280;11648;49.306;6.934;2023-02-11T01:18:45;100412.44;;;7.46;58.29
22964;BME280;11648;49.306;6.934;2023-02-11T01:21:12;100415.06;;;7.46;58.21
22964;BME280;11648;49.306;6.934;2023-02-11T01:23:38;100419.22;;;7.39;58.59
22964;BME280;11648;49.306;6.934;2023-02-11T01:26:05;100417.81;;;7.24;59.12
22964;BME280;11648;49.306;6.934;2023-02-11T01:28:32;100417.00;;;7.26;59.18
22964;BME280;11648;49.306;6.934;2023-02-11T01:31:00;100414.19;;;7.20;59.30
22964;BME280;11648;49.306;6.934;2023-02-11T01:33:28;100422.78;;;7.16;59.42
22964;BME280;11648;49.306;6.934;2023-02-11T01:35:59;100428.72;;;7.11;59.52
22964;BME280;11648;49.306;6.934;2023-02-11T01:38:26;100422.41;;;7.06;59.87
22964;BME280;11648;49.306;6.934;2023-02-11T01:41:01;100423.97;;;7.01;59.70
22964;BME280;11648;49.306;6.934;2023-02-11T01:43:35;100424.72;;;6.97;59.61
22964;BME280;11648;49.306;6.934;2023-02-11T01:46:33;100425.66;;;6.99;59.72
22964;BME280;11648;49.306;6.934;2023-02-11T01:49:02;100425.75;;;7.02;59.59
22964;BME280;11648;49.306;6.934;2023-02-11T01:51:57;100422.31;;;7.03;59.98
22964;BME280;11648;49.306;6.934;2023-02-11T01:54:28;100416.81;;;6.95;60.02
22964;BME280;11648;49.306;6.934;2023-02-11T01:57:17;100413.09;;;6.88;59.89
22964;BME280;11648;49.306;6.934;2023-02-11T02:02:47;100389.91;;;6.75;60.35
22964;BME280;11648;49.306;6.934;2023-02-11T02:05:27;100384.59;;;6.72;60.83
22964;BME280;11648;49.306;6.934;2023-02-11T02:08:26;100382.88;;;6.73;60.79
22964;BME280;11648;49.306;6.934;2023-02-11T02:10:55;100383.97;;;6.79;61.14
22964;BME280;11648;49.306;6.934;2023-02-11T02:13:24;100389.47;;;6.87;60.49
22964;BME280;11648;49.306;6.934;2023-02-11T02:15:57;100387.84;;;6.90;60.41
22964;BME280;11648;49.306;6.934;2023-02-11T02:18:51;100383.66;;;6.95;60.02
22964;BME280;11648;49.306;6.934;2023-02-11T02:40:49;100340.34;;;7.05;59.05
22964;BME280;11648;49.306;6.934;2023-02-11T02:43:20;100345.19;;;7.20;58.88
22964;BME280;11648;49.306;6.934;2023-02-11T02:45:47;100350.16;;;7.11;59.03
22964;BME280;11648;49.306;6.934;2023-02-11T02:48:30;100353.31;;;7.27;58.64
22964;BME280;11648;49.306;6.934;2023-02-11T02:57:22;100348.50;;;7.41;58.04
22964;BME280;11648;49.306;6.934;2023-02-11T03:03:09;100342.53;;;7.45;57.76
22964;BME280;11648;49.306;6.934;2023-02-11T03:11:09;100337.78;;;7.07;58.52
22964;BME280;11648;49.306;6.934;2023-02-11T03:13:38;100336.94;;;7.08;58.47
22964;BME280;11648;49.306;6.934;2023-02-11T03:16:10;100336.81;;;7.05;59.02
22964;BME280;11648;49.306;6.934;2023-02-11T03:18:41;100333.53;;;7.10;58.62
22964;BME280;11648;49.306;6.934;2023-02-11T03:21:10;100345.28;;;7.23;58.53
22964;BME280;11648;49.306;6.934;2023-02-11T03:23:43;100338.84;;;7.40;58.27
22964;BME280;11648;49.306;6.934;2023-02-11T03:26:22;100344.66;;;7.30;58.03
22964;BME280;11648;49.306;6.934;2023-02-11T03:29:09;100348.25;;;7.33;58.12
22964;BME280;11648;49.306;6.934;2023-02-11T03:34:26;100345.84;;;7.39;58.01
22964;BME280;11648;49.306;6.934;2023-02-11T03:39:29;100355.38;;;7.64;57.54
22964;BME280;11648;49.306;6.934;2023-02-11T03:41:59;100349.25;;;7.65;57.35
22964;BME280;11648;49.306;6.934;2023-02-11T03:44:33;100352.88;;;7.69;57.26
22964;BME280;11648;49.306;6.934;2023-02-11T03:47:02;100360.59;;;7.64;57.65
22964;BME280;11648;49.306;6.934;2023-02-11T03:49:31;100360.78;;;7.70;57.32
22964;BME280;11648;49.306;6.934;2023-02-11T03:52:00;100358.06;;;7.67;57.86
22964;BME280;11648;49.306;6.934;2023-02-11T03:54:29;100358.72;;;7.60;58.36
22964;BME280;11648;49.306;6.934;2023-02-11T03:56:58;100354.06;;;7.52;58.90
22964;BME280;11648;49.306;6.934;2023-02-11T03:59:26;100350.56;;;7.51;58.63
22964;BME280;11648;49.306;6.934;2023-02-11T04:01:53;100345.19;;;7.47;58.62
22964;BME280;11648;49.306;6.934;2023-02-11T04:04:20;100348.56;;;7.42;58.64
22964;BME280;11648;49.306;6.934;2023-02-11T04:06:47;100338.00;;;7.39;58.98
22964;BME280;11648;49.306;6.934;2023-02-11T04:09:15;100341.28;;;7.34;58.88
22964;BME280;11648;49.306;6.934;2023-02-11T04:11:41;100342.66;;;7.23;59.42
22964;BME280;11648;49.306;6.934;2023-02-11T04:14:08;100338.28;;;7.22;59.57
22964;BME280;11648;49.306;6.934;2023-02-11T04:16:35;100340.75;;;7.17;59.61
22964;BME280;11648;49.306;6.934;2023-02-11T04:19:01;100336.41;;;7.18;59.45
22964;BME280;11648;49.306;6.934;2023-02-11T04:21:28;100343.47;;;7.20;59.39
22964;BME280;11648;49.306;6.934;2023-02-11T04:23:55;100344.53;;;7.25;59.59
22964;BME280;11648;49.306;6.934;2023-02-11T04:26:21;100343.72;;;7.28;59.78
22964;BME280;11648;49.306;6.934;2023-02-11T04:28:48;100344.81;;;7.34;59.29
22964;BME280;11648;49.306;6.934;2023-02-11T04:31:15;100341.34;;;7.35;59.12
22964;BME280;11648;49.306;6.934;2023-02-11T04:33:42;100338.81;;;7.38;58.50
22964;BME280;11648;49.306;6.934;2023-02-11T04:36:08;100339.66;;;7.37;58.23
22964;BME280;11648;49.306;6.934;2023-02-11T04:38:35;100337.75;;;7.32;57.92
22964;BME280;11648;49.306;6.934;2023-02-11T04:41:01;100332.63;;;7.36;57.77
22964;BME280;11648;49.306;6.934;2023-02-11T04:43:28;100332.38;;;7.56;57.50
22964;BME280;11648;49.306;6.934;2023-02-11T04:45:56;100329.00;;;7.60;57.43
22964;BME280;11648;49.306;6.934;2023-02-11T04:48:24;100323.09;;;7.67;57.02
22964;BME280;11648;49.306;6.934;2023-02-11T04:50:51;100320.53;;;7.68;56.87
22964;BME280;11648;49.306;6.934;2023-02-11T04:53:17;100314.53;;;7.72;56.65
22964;BME280;11648;49.306;6.934;2023-02-11T04:55:47;100317.94;;;7.70;56.68
22964;BME280;11648;49.306;6.934;2023-02-11T04:58:15;100307.47;;;7.70;57.03
22964;BME280;11648;49.306;6.934;2023-02-11T05:00:42;100299.28;;;7.59;57.71
22964;BME280;11648;49.306;6.934;2023-02-11T05:03:08;100289.47;;;7.52;57.86
22964;BME280;11648;49.306;6.934;2023-02-11T05:05:39;100290.09;;;7.43;57.85
22964;BME280;11648;49.306;6.934;2023-02-11T05:08:09;100287.34;;;7.40;58.33
22964;BME280;11648;49.306;6.934;2023-02-11T05:10:36;100285.34;;;7.32;58.93
22964;BME280;11648;49.306;6.934;2023-02-11T05:13:03;100273.72;;;7.24;58.73
22964;BME280;11648;49.306;6.934;2023-02-11T05:15:30;100275.69;;;7.31;58.61
22964;BME280;11648;49.306;6.934;2023-02-11T05:17:57;100272.03;;;7.26;58.60
22964;BME280;11648;49.306;6.934;2023-02-11T05:20:24;100265.03;;;7.25;58.02
22964;BME280;11648;49.306;6.934;2023-02-11T05:22:50;100278.47;;;7.09;58.65
22964;BME280;11648;49.306;6.934;2023-02-11T05:25:18;100281.84;;;7.05;59.14
22964;BME280;11648;49.306;6.934;2023-02-11T05:27:45;100289.13;;;7.13;59.21
22964;BME280;11648;49.306;6.934;2023-02-11T05:30:12;100289.94;;;7.12;58.76
22964;BME280;11648;49.306;6.934;2023-02-11T05:32:39;100290.94;;;7.16;58.42
22964;BME280;11648;49.306;6.934;2023-02-11T05:35:06;100293.97;;;7.29;58.51
22964;BME280;11648;49.306;6.934;2023-02-11T05:37:33;100298.56;;;7.36;58.32
22964;BME280;11648;49.306;6.934;2023-02-11T05:40:00;100298.03;;;7.47;58.32
22964;BME280;11648;49.306;6.934;2023-02-11T05:42:27;100307.78;;;7.51;58.30
22964;BME280;11648;49.306;6.934;2023-02-11T05:44:54;100301.56;;;7.47;58.42
22964;BME280;11648;49.306;6.934;2023-02-11T05:47:20;100294.53;;;7.46;58.38
22964;BME280;11648;49.306;6.934;2023-02-11T05:49:47;100297.81;;;7.40;58.07
22964;BME280;11648;49.306;6.934;2023-02-11T05:52:13;100298.72;;;7.41;58.46
22964;BME280;11648;49.306;6.934;2023-02-11T05:54:40;100296.84;;;7.37;57.87
22964;BME280;11648;49.306;6.934;2023-02-11T05:57:07;100303.31;;;7.48;57.66
22964;BME280;11648;49.306;6.934;2023-02-11T05:59:34;100292.06;;;7.51;57.64
22964;BME280;11648;49.306;6.934;2023-02-11T06:02:00;100304.38;;;7.55;57.33
22964;BME280;11648;49.306;6.934;2023-02-11T06:04:27;100302.00;;;7.62;57.12
22964;BME280;11648;49.306;6.934;2023-02-11T06:06:55;100297.50;;;7.58;56.53
22964;BME280;11648;49.306;6.934;2023-02-11T06:09:22;100300.31;;;7.64;56.88
22964;BME280;11648;49.306;6.934;2023-02-11T06:11:48;100292.78;;;7.75;56.52
22964;BME280;11648;49.306;6.934;2023-02-11T06:14:15;100292.78;;;7.75;56.60
22964;BME280;11648;49.306;6.934;2023-02-11T06:16:42;100297.13;;;7.74;56.64
22964;BME280;11648;49.306;6.934;2023-02-11T06:19:09;100294.66;;;7.80;56.00
22964;BME280;11648;49.306;6.934;2023-02-11T06:21:36;100300.06;;;7.85;56.14
22964;BME280;11648;49.306;6.934;2023-02-11T06:24:10;100295.41;;;7.75;56.24
22964;BME280;11648;49.306;6.934;2023-02-11T06:26:37;100294.66;;;7.80;56.50
22964;BME280;11648;49.306;6.934;2023-02-11T06:29:04;100306.19;;;7.85;56.39
22964;BME280;11648;49.306;6.934;2023-02-11T06:31:30;100310.50;;;7.83;56.28
22964;BME280;11648;49.306;6.934;2023-02-11T06:33:57;100318.41;;;7.85;56.53
22964;BME280;11648;49.306;6.934;2023-02-11T06:36:24;100306.94;;;7.81;56.20
22964;BME280;11648;49.306;6.934;2023-02-11T06:38:51;100303.13;;;7.70;56.31
22964;BME280;11648;49.306;6.934;2023-02-11T06:41:18;100302.31;;;7.73;55.94
22964;BME280;11648;49.306;6.934;2023-02-11T06:43:48;100296.53;;;7.83;56.23
22964;BME280;11648;49.306;6.934;2023-02-11T06:46:15;100311.34;;;7.82;55.75
22964;BME280;11648;49.306;6.934;2023-02-11T06:48:41;100305.25;;;7.83;56.25
22964;BME280;11648;49.306;6.934;2023-02-11T06:51:11;100317.66;;;7.89;56.47
22964;BME280;11648;49.306;6.934;2023-02-11T06:53:41;100314.16;;;7.88;56.46
22964;BME280;11648;49.306;6.934;2023-02-11T06:56:11;100312.19;;;7.81;56.92
22964;BME280;11648;49.306;6.934;2023-02-11T06:58:38;100318.75;;;7.67;57.11
22964;BME280;11648;49.306;6.934;2023-02-11T07:01:07;100318.75;;;7.67;57.42
22964;BME280;11648;49.306;6.934;2023-02-11T07:03:35;100322.19;;;7.65;57.28
22964;BME280;11648;49.306;6.934;2023-02-11T07:06:04;100330.25;;;7.72;57.10
22964;BME280;11648;49.306;6.934;2023-02-11T07:08:35;100324.09;;;7.70;56.96
22964;BME280;11648;49.306;6.934;2023-02-11T07:11:14;100321.31;;;7.66;57.33
22964;BME280;11648;49.306;6.934;2023-02-11T07:13:42;100316.97;;;7.66;57.46
22964;BME280;11648;49.306;6.934;2023-02-11T07:16:12;100322.19;;;7.65;57.38
22964;BME280;11648;49.306;6.934;2023-02-11T07:18:39;100322.03;;;7.60;57.40
22964;BME280;11648;49.306;6.934;2023-02-11T07:21:07;100323.94;;;7.66;57.36
22964;BME280;11648;49.306;6.934;2023-02-11T07:23:35;100324.03;;;7.69;57.45
22964;BME280;11648;49.306;6.934;2023-02-11T07:26:07;100319.88;;;7.75;56.99
22964;BME280;11648;49.306;6.934;2023-02-11T07:28:35;100316.59;;;7.82;57.04
22964;BME280;11648;49.306;6.934;2023-02-11T07:31:10;100324.19;;;7.73;56.54
22964;BME280;11648;49.306;6.934;2023-02-11T07:33:37;100329.78;;;7.85;56.36
22964;BME280;11648;49.306;6.934;2023-02-11T07:36:06;100331.94;;;7.99;56.71
22964;BME280;11648;49.306;6.934;2023-02-11T07:38:34;100336.25;;;7.97;56.48
22964;BME280;11648;49.306;6.934;2023-02-11T07:41:07;100335.38;;;7.97;56.47
22964;BME280;11648;49.306;6.934;2023-02-11T07:43:36;100334.38;;;7.92;56.58
22964;BME280;11648;49.306;6.934;2023-02-11T07:46:04;100338.06;;;7.99;56.46
22964;BME280;11648;49.306;6.934;2023-02-11T07:48:31;100338.97;;;8.00;56.49
22964;BME280;11648;49.306;6.934;2023-02-11T07:51:09;100346.75;;;7.97;56.68
22964;BME280;11648;49.306;6.934;2023-02-11T07:53:37;100344.13;;;7.97;56.42
22964;BME280;11648;49.306;6.934;2023-02-11T07:56:05;100344.13;;;7.97;56.78
22964;BME280;11648;49.306;6.934;2023-02-11T07:58:32;100342.72;;;8.09;56.46
22964;BME280;11648;49.306;6.934;2023-02-11T08:01:04;100335.16;;;8.20;56.51
22964;BME280;11648;49.306;6.934;2023-02-11T08:03:33;100342.59;;;8.33;56.39
22964;BME280;11648;49.306;6.934;2023-02-11T08:06:08;100342.06;;;8.46;55.53
22964;BME280;11648;49.306;6.934;2023-02-11T08:08:35;100338.59;;;8.47;55.82
22964;BME280;11648;49.306;6.934;2023-02-11T08:11:06;100336.06;;;8.50;55.46
22964;BME280;11648;49.306;6.934;2023-02-11T08:13:34;100344.34;;;8.65;54.97
22964;BME280;11648;49.306;6.934;2023-02-11T08:16:03;100341.00;;;8.71;54.34
22964;BME280;11648;49.306;6.934;2023-02-11T08:18:31;100349.41;;;8.59;54.89
22964;BME280;11648;49.306;6.934;2023-02-11T08:21:06;100338.13;;;8.62;55.02
22964;BME280;11648;49.306;6.934;2023-02-11T08:23:36;100345.00;;;8.57;54.80
22964;BME280;11648;49.306;6.934;2023-02-11T08:26:04;100355.13;;;8.44;55.13
22964;BME280;11648;49.306;6.934;2023-02-11T08:28:34;100349.81;;;8.41;55.57
22964;BME280;11648;49.306;6.934;2023-02-11T08:31:09;100351.28;;;8.32;55.77
22964;BME280;11648;49.306;6.934;2023-02-11T08:33:37;100356.94;;;8.46;55.02
22964;BME280;11648;49.306;6.934;2023-02-11T08:36:10;100350.09;;;8.51;55.05
22964;BME280;11648;49.306;6.934;2023-02-11T08:38:37;100360.91;;;8.63;54.60
22964;BME280;11648;49.306;6.934;2023-02-11T08:41:04;100354.97;;;8.70;55.01
22964;BME280;11648;49.306;6.934;2023-02-11T08:43:30;100357.63;;;8.71;54.24
22964;BME280;11648;49.306;6.934;2023-02-11T08:45:59;100361.84;;;8.65;54.66
22964;BME280;11648;49.306;6.934;2023-02-11T08:48:28;100355.13;;;8.44;54.92
22964;BME280;11648;49.306;6.934;2023-02-11T08:50:55;100366.13;;;8.61;55.07
22964;BME280;11648;49.306;6.934;2023-02-11T08:53:23;100367.41;;;8.77;54.80
22964;BME280;11648;49.306;6.934;2023-02-11T08:55:51;100377.53;;;8.62;55.33
22964;BME280;11648;49.306;6.934;2023-02-11T08:58:20;100374.31;;;8.42;55.17
22964;BME280;11648;49.306;6.934;2023-02-11T09:00:48;100372.59;;;8.42;55.87
22964;BME280;11648;49.306;6.934;2023-02-11T09:03:15;100380.22;;;8.65;55.31
22964;BME280;11648;49.306;6.934;2023-02-11T09:05:47;100377.59;;;8.98;54.69
22964;BME280;11648;49.306;6.934;2023-02-11T09:08:15;100376.78;;;9.00;54.24
22964;BME280;11648;49.306;6.934;2023-02-11T09:10:42;100381.47;;;8.79;54.47
22964;BME280;11648;49.306;6.934;2023-02-11T09:13:09;100380.47;;;8.74;54.79
22964;BME280;11648;49.306;6.934;2023-02-11T09:15:36;100382.31;;;8.78;55.52
22964;BME280;11648;49.306;6.934;2023-02-11T09:18:03;100381.63;;;8.83;55.10
22964;BME280;11648;49.306;6.934;2023-02-11T09:20:30;100379.53;;;8.72;55.40
22964;BME280;11648;49.306;6.934;2023-02-11T09:22:58;100386.22;;;8.61;55.93
22964;BME280;11648;49.306;6.934;2023-02-11T09:25:25;100392.81;;;8.76;55.41
22964;BME280;11648;49.306;6.934;2023-02-11T09:27:52;100378.66;;;9.04;55.31
22964;BME280;11648;49.306;6.934;2023-02-11T09:30:19;100386.34;;;8.97;54.84
22964;BME280;11648;49.306;6.934;2023-02-11T09:32:46;100390.25;;;9.12;55.12
22964;BME280;11648;49.306;6.934;2023-02-11T09:35:13;100376.69;;;9.31;54.40
22964;BME280;11648;49.306;6.934;2023-02-11T09:37:40;100381.84;;;9.63;53.22
22964;BME280;11648;49.306;6.934;2023-02-11T09:40:07;100371.19;;;9.96;52.56
22964;BME280;11648;49.306;6.934;2023-02-11T09:45:22;100384.28;;;10.30;52.28
22964;BME280;11648;49.306;6.934;2023-02-11T09:47:54;100384.69;;;10.11;52.33
22964;BME280;11648;49.306;6.934;2023-02-11T09:50:27;100376.47;;;10.34;52.00
22964;BME280;11648;49.306;6.934;2023-02-11T09:53:05;100362.97;;;10.61;51.51
22964;BME280;11648;49.306;6.934;2023-02-11T09:55:42;100359.88;;;10.83;50.81
22964;BME280;11648;49.306;6.934;2023-02-11T09:58:12;100353.66;;;11.29;49.60
22964;BME280;11648;49.306;6.934;2023-02-11T10:00:47;100357.44;;;11.45;49.27
22964;BME280;11648;49.306;6.934;2023-02-11T10:06:35;100352.75;;;11.81;48.31
22964;BME280;11648;49.306;6.934;2023-02-11T10:17:31;100349.97;;;12.40;47.08
22964;BME280;11648;49.306;6.934;2023-02-11T10:22:35;100346.41;;;12.35;47.19
22964;BME280;11648;49.306;6.934;2023-02-11T10:25:17;100354.69;;;12.67;47.09
22964;BME280;11648;49.306;6.934;2023-02-11T10:27:45;100358.56;;;13.01;46.13
22964;BME280;11648;49.306;6.934;2023-02-11T10:30:44;100350.41;;;13.80;44.90
22964;BME280;11648;49.306;6.934;2023-02-11T10:36:12;100354.41;;;14.69;42.98
22964;BME280;11648;49.306;6.934;2023-02-11T10:38:39;100349.13;;;14.95;41.96
22964;BME280;11648;49.306;6.934;2023-02-11T10:41:12;100358.00;;;15.10;41.88
22964;BME280;11648;49.306;6.934;2023-02-11T10:43:41;100367.72;;;14.98;41.77
22964;BME280;11648;49.306;6.934;2023-02-11T10:46:15;100358.91;;;15.32;41.72
22964;BME280;11648;49.306;6.934;2023-02-11T10:48:46;100364.25;;;15.62;40.86
22964;BME280;11648;49.306;6.934;2023-02-11T10:51:23;100353.53;;;16.11;39.94
22964;BME280;11648;49.306;6.934;2023-02-11T10:56:32;100358.03;;;15.30;41.12
22964;BME280;11648;49.306;6.934;2023-02-11T10:59:03;100350.09;;;15.51;41.19
22964;BME280;11648;49.306;6.934;2023-02-11T11:01:46;100349.06;;;16.17;40.22
22964;BME280;11648;49.306;6.934;2023-02-11T11:07:01;100357.13;;;15.89;40.58
22964;BME280;11648;49.306;6.934;2023-02-11T11:09:55;100351.88;;;15.54;41.49
22964;BME280;11648;49.306;6.934;2023-02-11T11:12:45;100340.34;;;15.40;41.63
22964;BME280;11648;49.306;6.934;2023-02-11T11:15:31;100337.66;;;15.80;41.12
22964;BME280;11648;49.306;6.934;2023-02-11T11:20:58;100339.44;;;15.88;40.66
22964;BME280;11648;49.306;6.934;2023-02-11T11:23:28;100327.09;;;15.50;41.26
22964;BME280;11648;49.306;6.934;2023-02-11T11:28:53;100314.38;;;16.52;40.17
22964;BME280;11648;49.306;6.934;2023-02-11T11:31:28;100295.19;;;18.19;37.37
22964;BME280;11648;49.306;6.934;2023-02-11T11:33:57;100290.72;;;19.41;35.30
22964;BME280;11648;49.306;6.934;2023-02-11T11:36:34;100282.09;;;20.98;33.49
22964;BME280;11648;49.306;6.934;2023-02-11T11:39:14;100261.84;;;23.61;30.02
22964;BME280;11648;49.306;6.934;2023-02-11T11:41:56;100278.59;;;24.88;28.15
22964;BME280;11648;49.306;6.934;2023-02-11T11:52:45;100299.91;;;20.62;33.36
22964;BME280;11648;49.306;6.934;2023-02-11T11:55:24;100290.75;;;21.46;31.75
22964;BME280;11648;49.306;6.934;2023-02-11T11:57:52;100276.06;;;21.95;30.88
22964;BME280;11648;49.306;6.934;2023-02-11T12:01:01;100277.97;;;21.90;31.46
22964;BME280;11648;49.306;6.934;2023-02-11T12:09:08;100253.94;;;24.06;28.32
22964;BME280;11648;49.306;6.934;2023-02-11T12:17:15;100248.47;;;24.77;27.64
22964;BME280;11648;49.306;6.934;2023-02-11T12:19:52;100260.34;;;24.95;27.18
22964;BME280;11648;49.306;6.934;2023-02-11T12:22:25;100260.66;;;23.70;28.38
22964;BME280;11648;49.306;6.934;2023-02-11T12:27:49;100276.75;;;22.61;30.29
22964;BME280;11648;49.306;6.934;2023-02-11T12:30:25;100276.47;;;22.12;30.48
22964;BME280;11648;49.306;6.934;2023-02-11T12:38:44;100287.53;;;19.71;34.79
22964;BME280;11648;49.306;6.934;2023-02-11T12:42:18;100282.31;;;20.09;34.21
22964;BME280;11648;49.306;6.934;2023-02-11T12:50:08;100318.19;;;17.41;39.34
22964;BME280;11648;49.306;6.934;2023-02-11T12:55:26;100329.63;;;16.06;41.68
22964;BME280;11648;49.306;6.934;2023-02-11T12:57:55;100335.88;;;15.73;42.58
22964;BME280;11648;49.306;6.934;2023-02-11T13:00:30;100336.81;;;15.12;43.89
22964;BME280;11648;49.306;6.934;2023-02-11T13:05:57;100341.19;;;14.89;44.99
22964;BME280;11648;49.306;6.934;2023-02-11T13:08:32;100330.53;;;14.67;45.81
22964;BME280;11648;49.306;6.934;2023-02-11T13:11:04;100334.00;;;14.42;46.26
22964;BME280;11648;49.306;6.934;2023-02-11T13:13:41;100332.19;;;14.35;46.66
22964;BME280;11648;49.306;6.934;2023-02-11T13:16:19;100333.00;;;14.26;47.06
22964;BME280;11648;49.306;6.934;2023-02-11T13:18:51;100323.31;;;14.31;46.88
22964;BME280;11648;49.306;6.934;2023-02-11T13:29:25;100332.22;;;14.37;46.82
22964;BME280;11648;49.306;6.934;2023-02-11T13:32:08;100318.97;;;14.43;46.63
22964;BME280;11648;49.306;6.934;2023-02-11T13:42:32;100328.22;;;13.62;48.59
22964;BME280;11648;49.306;6.934;2023-02-11T13:45:00;100321.19;;;13.61;48.47
22964;BME280;11648;49.306;6.934;2023-02-11T13:47:34;100326.47;;;13.59;48.34
22964;BME280;11648;49.306;6.934;2023-02-11T13:50:05;100326.19;;;13.23;49.38
22964;BME280;11648;49.306;6.934;2023-02-11T13:52:35;100319.13;;;13.22;49.50
22964;BME280;11648;49.306;6.934;2023-02-11T13:55:19;100328.75;;;13.12;50.07
22964;BME280;11648;49.306;6.934;2023-02-11T14:11:52;100320.09;;;13.33;49.80
22964;BME280;11648;49.306;6.934;2023-02-11T14:14:29;100313.88;;;13.25;49.99
22964;BME280;11648;49.306;6.934;2023-02-11T14:19:35;100318.22;;;13.17;50.13
22964;BME280;11648;49.306;6.934;2023-02-11T14:22:03;100312.91;;;13.17;50.51
22964;BME280;11648;49.306;6.934;2023-02-11T14:27:15;100311.13;;;13.13;51.30
22964;BME280;11648;49.306;6.934;2023-02-11T14:41:45;100302.19;;;13.03;51.38
22964;BME280;11648;49.306;6.934;2023-02-11T14:44:22;100299.56;;;13.05;51.37
22964;BME280;11648;49.306;6.934;2023-02-11T14:46:51;100304.75;;;12.97;51.71
22964;BME280;11648;49.306;6.934;2023-02-11T14:49:30;100311.88;;;13.03;51.68
22964;BME280;11648;49.306;6.934;2023-02-11T14:52:15;100311.78;;;12.92;51.74
22964;BME280;11648;49.306;6.934;2023-02-11T14:54:48;100323.25;;;12.93;52.26
22964;BME280;11648;49.306;6.934;2023-02-11T14:57:18;100321.47;;;12.92;51.85
22964;BME280;11648;49.306;6.934;2023-02-11T15:00:19;100316.91;;;12.75;52.42
22964;BME280;11648;49.306;6.934;2023-02-11T15:02:46;100317.69;;;12.65;52.68
22964;BME280;11648;49.306;6.934;2023-02-11T15:05:27;100318.50;;;12.60;53.15
22964;BME280;11648;49.306;6.934;2023-02-11T15:08:00;100323.75;;;12.55;53.51
22964;BME280;11648;49.306;6.934;2023-02-11T15:10:47;100322.84;;;12.53;53.53
22964;BME280;11648;49.306;6.934;2023-02-11T15:13:18;100313.09;;;12.48;53.52
22964;BME280;11648;49.306;6.934;2023-02-11T15:15:48;100313.06;;;12.45;53.57
22964;BME280;11648;49.306;6.934;2023-02-11T15:18:22;100318.25;;;12.35;54.32
22964;BME280;11648;49.306;6.934;2023-02-11T15:20:51;100316.44;;;12.31;54.49
22964;BME280;11648;49.306;6.934;2023-02-11T15:23:22;100318.97;;;12.24;54.81
22964;BME280;11648;49.306;6.934;2023-02-11T15:25:50;100322.38;;;12.14;54.88
22964;BME280;11648;49.306;6.934;2023-02-11T15:28:27;100320.53;;;12.07;55.02
22964;BME280;11648;49.306;6.934;2023-02-11T15:33:31;100331.16;;;12.13;55.30
22964;BME280;11648;49.306;6.934;2023-02-11T15:35:59;100332.00;;;12.09;55.50
22964;BME280;11648;49.306;6.934;2023-02-11T15:38:27;100326.81;;;12.16;55.27
22964;BME280;11648;49.306;6.934;2023-02-11T15:40:59;100330.25;;;12.11;55.50
22964;BME280;11648;49.306;6.934;2023-02-11T15:43:45;100331.19;;;12.16;55.43
22964;BME280;11648;49.306;6.934;2023-02-11T15:46:15;100331.22;;;12.19;55.46
22964;BME280;11648;49.306;6.934;2023-02-11T15:48:47;100337.31;;;12.10;55.72
22964;BME280;11648;49.306;6.934;2023-02-11T15:51:35;100341.56;;;12.01;55.93
22964;BME280;11648;49.306;6.934;2023-02-11T15:54:20;100346.75;;;11.95;56.15
22964;BME280;11648;49.306;6.934;2023-02-11T15:56:50;100331.72;;;11.87;56.41
22964;BME280;11648;49.306;6.934;2023-02-11T16:01:48;100336.13;;;11.90;56.35